sensor_id;sensor_type;location;lat;lon;timestamp;pressure;altitude;pressure_sealevel;temperature;humidity
41636;BME280;27623;51.966;4.602;2022-08-11T00:01:24;-19448.41;;;23.34;74.35
41636;BME280;27623;51.966;4.602;2022-08-11T00:03:56;-19447.00;;;23.28;74.38
41636;BME280;27623;51.966;4.602;2022-08-11T00:06:34;-19446.44;;;23.26;74.34
41636;BME280;27623;51.966;4.602;2022-08-11T00:09:04;-19446.72;;;23.27;74.33
41636;BME280;27623;51.966;4.602;2022-08-11T00:14:18;-19447.00;;;23.28;73.93
41636;BME280;27623;51.966;4.602;2022-08-11T00:19:26;-19445.03;;;23.21;74.67
41636;BME280;27623;51.966;4.602;2022-08-11T00:21:54;-19444.31;;;23.19;74.26
41636;BME280;27623;51.966;4.602;2022-08-11T00:24:21;-19442.75;;;23.13;74.31
41636;BME280;27623;51.966;4.602;2022-08-11T00:26:52;-19438.94;;;23.00;74.79
41636;BME280;27623;51.966;4.602;2022-08-11T00:29:19;-19440.34;;;23.05;74.40
41636;BME280;27623;51.966;4.602;2022-08-11T00:31:48;-19441.63;;;23.09;74.07
41636;BME280;27623;51.966;4.602;2022-08-11T00:34:17;-19439.78;;;23.03;74.78
41636;BME280;27623;51.966;4.602;2022-08-11T00:36:51;-19437.81;;;22.95;74.75
41636;BME280;27623;51.966;4.602;2022-08-11T00:39:21;-19434.97;;;22.85;74.92
41636;BME280;27623;51.966;4.602;2022-08-11T00:44:42;-19436.38;;;22.90;74.60
41636;BME280;27623;51.966;4.602;2022-08-11T01:09:23;-19429.44;;;22.66;74.19
41636;BME280;27623;51.966;4.602;2022-08-11T01:21:16;-19423.34;;;22.44;74.03
41636;BME280;27623;51.966;4.602;2022-08-11T01:33:18;-19422.78;;;22.42;73.50
41636;BME280;27623;51.966;4.602;2022-08-11T01:39:12;-19421.94;;;22.39;73.15
41636;BME280;27623;51.966;4.602;2022-08-11T01:47:19;-19420.78;;;22.35;72.38
41636;BME280;27623;51.966;4.602;2022-08-11T01:56:20;-19417.97;;;22.24;72.83
41636;BME280;27623;51.966;4.602;2022-08-11T02:01:32;-19414.84;;;22.13;72.70
41636;BME280;27623;51.966;4.602;2022-08-11T02:10:10;-19415.69;;;22.16;72.69
41636;BME280;27623;51.966;4.602;2022-08-11T02:13:04;-19414.97;;;22.14;72.77
41636;BME280;27623;51.966;4.602;2022-08-11T02:15:44;-19413.13;;;22.07;73.23
41636;BME280;27623;51.966;4.602;2022-08-11T02:18:21;-19405.75;;;21.81;74.21
41636;BME280;27623;51.966;4.602;2022-08-11T02:20:55;-19409.03;;;21.92;73.86
41636;BME280;27623;51.966;4.602;2022-08-11T02:26:22;-19403.91;;;21.74;74.37
41636;BME280;27623;51.966;4.602;2022-08-11T02:28:59;-19407.03;;;21.85;73.76
41636;BME280;27623;51.966;4.602;2022-08-11T02:40:27;-19404.06;;;21.75;73.40
41636;BME280;27623;51.966;4.602;2022-08-11T02:43:51;-19398.38;;;21.54;74.15
41636;BME280;27623;51.966;4.602;2022-08-11T02:46:28;-19397.81;;;21.52;74.72
41636;BME280;27623;51.966;4.602;2022-08-11T02:57:42;-19398.81;;;21.56;74.43
41636;BME280;27623;51.966;4.602;2022-08-11T03:00:14;-19391.00;;;21.28;75.42
41636;BME280;27623;51.966;4.602;2022-08-11T03:02:56;-19391.31;;;21.29;75.74
41636;BME280;27623;51.966;4.602;2022-08-11T03:14:13;-19386.03;;;21.10;76.89
41636;BME280;27623;51.966;4.602;2022-08-11T03:17:03;-19388.19;;;21.18;76.32
41636;BME280;27623;51.966;4.602;2022-08-11T03:22:24;-19384.78;;;21.06;76.71
41636;BME280;27623;51.966;4.602;2022-08-11T03:25:18;-19385.63;;;21.09;76.45
41636;BME280;27623;51.966;4.602;2022-08-11T03:27:56;-19389.59;;;21.23;76.37
41636;BME280;27623;51.966;4.602;2022-08-11T03:33:31;-19379.94;;;20.88;77.66
41636;BME280;27623;51.966;4.602;2022-08-11T03:50:32;-19373.84;;;20.67;78.59
41636;BME280;27623;51.966;4.602;2022-08-11T04:18:41;-19365.03;;;20.35;78.46
41636;BME280;27623;51.966;4.602;2022-08-11T04:24:10;-19365.75;;;20.38;78.24
41636;BME280;27623;51.966;4.602;2022-08-11T04:58:09;-19361.50;;;20.22;79.41
41636;BME280;27623;51.966;4.602;2022-08-11T05:01:10;-19363.75;;;20.31;78.87
41636;BME280;27623;51.966;4.602;2022-08-11T05:10:32;-19359.34;;;20.15;80.95
41636;BME280;27623;51.966;4.602;2022-08-11T05:13:09;-19361.50;;;20.22;80.42
41636;BME280;27623;51.966;4.602;2022-08-11T05:15:56;-19362.91;;;20.28;80.31
41636;BME280;27623;51.966;4.602;2022-08-11T05:19:00;-19358.94;;;20.13;81.50
41636;BME280;27623;51.966;4.602;2022-08-11T05:21:52;-19363.63;;;20.30;80.90
41636;BME280;27623;51.966;4.602;2022-08-11T05:24:51;-19362.75;;;20.27;80.85
41636;BME280;27623;51.966;4.602;2022-08-11T05:31:06;-19363.63;;;20.30;81.16
41636;BME280;27623;51.966;4.602;2022-08-11T05:33:59;-19364.19;;;20.32;81.04
41636;BME280;27623;51.966;4.602;2022-08-11T05:36:50;-19366.59;;;20.41;81.25
41636;BME280;27623;51.966;4.602;2022-08-11T05:39:20;-19365.19;;;20.36;82.04
41636;BME280;27623;51.966;4.602;2022-08-11T05:42:06;-19368.16;;;20.46;81.14
41636;BME280;27623;51.966;4.602;2022-08-11T05:44:52;-19366.59;;;20.41;82.05
41636;BME280;27623;51.966;4.602;2022-08-11T05:47:40;-19364.63;;;20.34;82.12
41636;BME280;27623;51.966;4.602;2022-08-11T05:50:25;-19365.31;;;20.36;82.24
41636;BME280;27623;51.966;4.602;2022-08-11T05:53:09;-19366.19;;;20.39;81.94
41636;BME280;27623;51.966;4.602;2022-08-11T05:55:56;-19368.72;;;20.48;81.95
41636;BME280;27623;51.966;4.602;2022-08-11T05:58:42;-19366.19;;;20.39;82.50
41636;BME280;27623;51.966;4.602;2022-08-11T06:01:11;-19368.44;;;20.47;82.55
41636;BME280;27623;51.966;4.602;2022-08-11T06:03:37;-19370.88;;;20.56;81.90
41636;BME280;27623;51.966;4.602;2022-08-11T06:06:24;-19371.44;;;20.58;81.94
41636;BME280;27623;51.966;4.602;2022-08-11T06:08:54;-19374.69;;;20.70;81.95
41636;BME280;27623;51.966;4.602;2022-08-11T06:11:21;-19370.44;;;20.54;82.67
41636;BME280;27623;51.966;4.602;2022-08-11T06:13:47;-19372.56;;;20.62;83.21
41636;BME280;27623;51.966;4.602;2022-08-11T06:16:13;-19373.84;;;20.67;82.48
41636;BME280;27623;51.966;4.602;2022-08-11T06:18:46;-19372.13;;;20.61;82.95
41636;BME280;27623;51.966;4.602;2022-08-11T06:21:13;-19374.69;;;20.70;82.22
41636;BME280;27623;51.966;4.602;2022-08-11T06:23:41;-19375.53;;;20.73;82.77
41636;BME280;27623;51.966;4.602;2022-08-11T06:26:11;-19376.69;;;20.77;81.79
41636;BME280;27623;51.966;4.602;2022-08-11T06:28:39;-19376.53;;;20.76;80.85
41636;BME280;27623;51.966;4.602;2022-08-11T06:31:20;-19378.25;;;20.82;80.16
41636;BME280;27623;51.966;4.602;2022-08-11T06:36:46;-19378.09;;;20.82;80.34
41636;BME280;27623;51.966;4.602;2022-08-11T06:39:31;-19379.09;;;20.85;78.77
41636;BME280;27623;51.966;4.602;2022-08-11T06:42:08;-19383.50;;;21.01;77.48
41636;BME280;27623;51.966;4.602;2022-08-11T06:45:00;-19385.06;;;21.07;76.54
41636;BME280;27623;51.966;4.602;2022-08-11T06:47:29;-19384.47;;;21.05;75.60
41636;BME280;27623;51.966;4.602;2022-08-11T06:49:55;-19383.78;;;21.02;75.37
41636;BME280;27623;51.966;4.602;2022-08-11T06:52:42;-19384.78;;;21.06;75.25
41636;BME280;27623;51.966;4.602;2022-08-11T06:55:12;-19383.22;;;21.00;74.53
41636;BME280;27623;51.966;4.602;2022-08-11T06:57:59;-19385.06;;;21.07;74.31
41636;BME280;27623;51.966;4.602;2022-08-11T07:00:46;-19386.63;;;21.12;74.62
41636;BME280;27623;51.966;4.602;2022-08-11T07:03:15;-19387.75;;;21.16;74.71
41636;BME280;27623;51.966;4.602;2022-08-11T07:14:55;-19390.03;;;21.24;72.13
41636;BME280;27623;51.966;4.602;2022-08-11T07:17:45;-19391.88;;;21.31;71.71
41636;BME280;27623;51.966;4.602;2022-08-11T07:20:14;-19392.88;;;21.35;72.14
41636;BME280;27623;51.966;4.602;2022-08-11T07:23:01;-19394.41;;;21.40;71.77
41636;BME280;27623;51.966;4.602;2022-08-11T07:25:51;-19395.84;;;21.45;72.13
41636;BME280;27623;51.966;4.602;2022-08-11T07:28:40;-19397.13;;;21.50;72.59
41636;BME280;27623;51.966;4.602;2022-08-11T07:31:40;-19398.53;;;21.55;72.24
41636;BME280;27623;51.966;4.602;2022-08-11T07:36:54;-19400.38;;;21.61;72.72
41636;BME280;27623;51.966;4.602;2022-08-11T07:39:26;-19401.94;;;21.67;72.68
41636;BME280;27623;51.966;4.602;2022-08-11T07:41:55;-19403.34;;;21.72;72.44
41636;BME280;27623;51.966;4.602;2022-08-11T07:44:23;-19404.63;;;21.77;72.30
41636;BME280;27623;51.966;4.602;2022-08-11T07:46:51;-19405.34;;;21.79;72.24
41636;BME280;27623;51.966;4.602;2022-08-11T07:49:38;-19407.03;;;21.85;72.26
41636;BME280;27623;51.966;4.602;2022-08-11T07:52:24;-19408.47;;;21.90;72.06
41636;BME280;27623;51.966;4.602;2022-08-11T07:55:16;-19410.16;;;21.97;71.93
41636;BME280;27623;51.966;4.602;2022-08-11T07:57:44;-19412.00;;;22.03;70.25
41636;BME280;27623;51.966;4.602;2022-08-11T08:00:28;-19414.97;;;22.14;69.05
41636;BME280;27623;51.966;4.602;2022-08-11T08:03:18;-19417.81;;;22.24;69.60
41636;BME280;27623;51.966;4.602;2022-08-11T08:06:04;-19419.94;;;22.32;69.49
41636;BME280;27623;51.966;4.602;2022-08-11T08:08:52;-19421.78;;;22.38;69.76
41636;BME280;27623;51.966;4.602;2022-08-11T08:11:38;-19423.06;;;22.43;70.04
41636;BME280;27623;51.966;4.602;2022-08-11T08:14:22;-19425.31;;;22.51;69.05
41636;BME280;27623;51.966;4.602;2022-08-11T08:17:07;-19427.47;;;22.58;68.37
41636;BME280;27623;51.966;4.602;2022-08-11T08:19:52;-19429.84;;;22.67;67.73
41636;BME280;27623;51.966;4.602;2022-08-11T08:22:20;-19431.84;;;22.74;68.00
41636;BME280;27623;51.966;4.602;2022-08-11T08:24:46;-19434.25;;;22.83;67.24
41636;BME280;27623;51.966;4.602;2022-08-11T08:27:14;-19436.25;;;22.90;66.72
41636;BME280;27623;51.966;4.602;2022-08-11T08:29:40;-19437.94;;;22.96;67.14
41636;BME280;27623;51.966;4.602;2022-08-11T08:32:27;-19442.34;;;23.12;63.58
41636;BME280;27623;51.966;4.602;2022-08-11T08:34:54;-19447.28;;;23.29;63.11
41636;BME280;27623;51.966;4.602;2022-08-11T08:37:24;-19454.38;;;23.55;62.17
41636;BME280;27623;51.966;4.602;2022-08-11T08:40:12;-19456.91;;;23.64;62.37
41636;BME280;27623;51.966;4.602;2022-08-11T08:42:53;-19460.16;;;23.76;61.94
41636;BME280;27623;51.966;4.602;2022-08-11T08:45:20;-19461.44;;;23.80;61.99
41636;BME280;27623;51.966;4.602;2022-08-11T08:47:58;-19463.44;;;23.87;62.75
41636;BME280;27623;51.966;4.602;2022-08-11T08:50:26;-19465.69;;;23.95;62.05
41636;BME280;27623;51.966;4.602;2022-08-11T08:53:13;-19469.81;;;24.10;60.02
41636;BME280;27623;51.966;4.602;2022-08-11T08:55:44;-19475.03;;;24.29;61.74
41636;BME280;27623;51.966;4.602;2022-08-11T08:58:11;-19477.00;;;24.36;60.99
41636;BME280;27623;51.966;4.602;2022-08-11T09:00:39;-19480.28;;;24.48;61.47
41636;BME280;27623;51.966;4.602;2022-08-11T09:03:05;-19481.81;;;24.53;60.73
41636;BME280;27623;51.966;4.602;2022-08-11T09:05:31;-19484.09;;;24.61;59.05
41636;BME280;27623;51.966;4.602;2022-08-11T09:07:56;-19488.31;;;24.77;57.39
41636;BME280;27623;51.966;4.602;2022-08-11T09:10:23;-19492.72;;;24.92;56.37
41636;BME280;27623;51.966;4.602;2022-08-11T09:12:55;-19496.53;;;25.06;55.61
41636;BME280;27623;51.966;4.602;2022-08-11T09:15:22;-19497.81;;;25.11;55.50
41636;BME280;27623;51.966;4.602;2022-08-11T09:17:54;-19500.50;;;25.20;56.09
41636;BME280;27623;51.966;4.602;2022-08-11T09:20:29;-19503.75;;;25.32;56.24
41636;BME280;27623;51.966;4.602;2022-08-11T09:23:02;-19508.97;;;25.51;53.88
41636;BME280;27623;51.966;4.602;2022-08-11T09:25:48;-19512.50;;;25.63;51.16
41636;BME280;27623;51.966;4.602;2022-08-11T09:28:33;-19516.75;;;25.79;52.22
41636;BME280;27623;51.966;4.602;2022-08-11T09:31:01;-19520.13;;;25.91;52.03
41636;BME280;27623;51.966;4.602;2022-08-11T09:33:29;-19522.13;;;25.98;51.27
41636;BME280;27623;51.966;4.602;2022-08-11T09:35:56;-19524.22;;;26.06;51.35
41636;BME280;27623;51.966;4.602;2022-08-11T09:38:25;-19526.06;;;26.12;49.09
41636;BME280;27623;51.966;4.602;2022-08-11T09:41:11;-19531.56;;;26.32;49.24
41636;BME280;27623;51.966;4.602;2022-08-11T09:43:45;-19536.22;;;26.49;47.61
41636;BME280;27623;51.966;4.602;2022-08-11T09:46:50;-19540.19;;;26.63;50.38
41636;BME280;27623;51.966;4.602;2022-08-11T09:49:19;-19541.59;;;26.68;52.50
41636;BME280;27623;51.966;4.602;2022-08-11T09:51:46;-19542.03;;;26.69;49.25
41636;BME280;27623;51.966;4.602;2022-08-11T09:54:12;-19542.59;;;26.72;50.38
41636;BME280;27623;51.966;4.602;2022-08-11T09:56:38;-19545.69;;;26.83;49.07
41636;BME280;27623;51.966;4.602;2022-08-11T09:59:22;-19548.78;;;26.94;49.38
41636;BME280;27623;51.966;4.602;2022-08-11T10:01:57;-19553.16;;;27.10;49.70
41636;BME280;27623;51.966;4.602;2022-08-11T10:04:26;-19557.97;;;27.27;47.87
41636;BME280;27623;51.966;4.602;2022-08-11T10:06:59;-19561.63;;;27.40;48.20
41636;BME280;27623;51.966;4.602;2022-08-11T10:09:55;-19562.91;;;27.45;46.21
41636;BME280;27623;51.966;4.602;2022-08-11T10:12:25;-19564.44;;;27.50;45.83
41636;BME280;27623;51.966;4.602;2022-08-11T10:14:54;-19570.09;;;27.70;44.99
41636;BME280;27623;51.966;4.602;2022-08-11T10:17:42;-19572.22;;;27.78;45.08
41636;BME280;27623;51.966;4.602;2022-08-11T10:20:29;-19575.72;;;27.91;45.23
41636;BME280;27623;51.966;4.602;2022-08-11T10:22:57;-19576.72;;;27.94;44.33
41636;BME280;27623;51.966;4.602;2022-08-11T10:25:42;-19579.25;;;28.03;44.57
41636;BME280;27623;51.966;4.602;2022-08-11T10:28:26;-19584.63;;;28.23;45.63
41636;BME280;27623;51.966;4.602;2022-08-11T10:30:53;-19588.56;;;28.37;44.52
41636;BME280;27623;51.966;4.602;2022-08-11T10:33:37;-19591.38;;;28.47;43.38
41636;BME280;27623;51.966;4.602;2022-08-11T10:36:21;-19595.75;;;28.63;42.11
41636;BME280;27623;51.966;4.602;2022-08-11T10:38:49;-19597.44;;;28.69;39.18
41636;BME280;27623;51.966;4.602;2022-08-11T10:41:17;-19597.56;;;28.69;38.19
41636;BME280;27623;51.966;4.602;2022-08-11T10:44:02;-19597.84;;;28.70;38.96
41636;BME280;27623;51.966;4.602;2022-08-11T10:46:29;-19598.69;;;28.73;39.63
41636;BME280;27623;51.966;4.602;2022-08-11T10:49:14;-19601.09;;;28.82;39.72
41636;BME280;27623;51.966;4.602;2022-08-11T10:51:40;-19604.34;;;28.94;40.14
41636;BME280;27623;51.966;4.602;2022-08-11T10:54:24;-19608.00;;;29.07;39.19
41636;BME280;27623;51.966;4.602;2022-08-11T10:57:08;-19614.47;;;29.30;38.27
41636;BME280;27623;51.966;4.602;2022-08-11T10:59:52;-19615.31;;;29.33;37.49
41636;BME280;27623;51.966;4.602;2022-08-11T11:02:19;-19617.00;;;29.39;36.68
41636;BME280;27623;51.966;4.602;2022-08-11T11:07:47;-19624.06;;;29.65;34.77
41636;BME280;27623;51.966;4.602;2022-08-11T11:10:14;-19622.78;;;29.60;33.25
41636;BME280;27623;51.966;4.602;2022-08-11T11:12:43;-19624.75;;;29.67;35.66
41636;BME280;27623;51.966;4.602;2022-08-11T11:15:29;-19623.91;;;29.64;33.27
41636;BME280;27623;51.966;4.602;2022-08-11T11:20:55;-19633.47;;;29.99;34.43
41636;BME280;27623;51.966;4.602;2022-08-11T11:26:51;-19645.72;;;30.43;33.09
41636;BME280;27623;51.966;4.602;2022-08-11T11:29:50;-19649.50;;;30.57;31.11
41636;BME280;27623;51.966;4.602;2022-08-11T11:32:28;-19650.78;;;30.61;31.78
41636;BME280;27623;51.966;4.602;2022-08-11T11:37:45;-19648.66;;;30.54;29.56
41636;BME280;27623;51.966;4.602;2022-08-11T11:40:15;-19646.00;;;30.44;31.02
41636;BME280;27623;51.966;4.602;2022-08-11T11:42:46;-19649.22;;;30.56;30.26
41636;BME280;27623;51.966;4.602;2022-08-11T11:45:17;-19649.94;;;30.58;29.75
41636;BME280;27623;51.966;4.602;2022-08-11T11:47:44;-19649.94;;;30.58;29.90
41636;BME280;27623;51.966;4.602;2022-08-11T11:50:10;-19653.16;;;30.70;31.41
41636;BME280;27623;51.966;4.602;2022-08-11T11:52:38;-19655.13;;;30.77;29.81
41636;BME280;27623;51.966;4.602;2022-08-11T11:55:05;-19657.66;;;30.86;30.28
41636;BME280;27623;51.966;4.602;2022-08-11T11:57:33;-19658.66;;;30.90;30.36
41636;BME280;27623;51.966;4.602;2022-08-11T12:00:17;-19659.50;;;30.93;30.88
41636;BME280;27623;51.966;4.602;2022-08-11T12:03:06;-19662.16;;;31.02;30.27
41636;BME280;27623;51.966;4.602;2022-08-11T12:05:33;-19664.97;;;31.13;29.40
41636;BME280;27623;51.966;4.602;2022-08-11T12:08:00;-19666.09;;;31.17;29.96
41636;BME280;27623;51.966;4.602;2022-08-11T12:10:45;-19671.28;;;31.35;29.37
41636;BME280;27623;51.966;4.602;2022-08-11T12:13:12;-19670.72;;;31.33;29.86
41636;BME280;27623;51.966;4.602;2022-08-11T12:15:57;-19667.91;;;31.23;29.02
41636;BME280;27623;51.966;4.602;2022-08-11T12:18:30;-19663.69;;;31.08;28.52
41636;BME280;27623;51.966;4.602;2022-08-11T12:20:57;-19666.94;;;31.20;28.40
41636;BME280;27623;51.966;4.602;2022-08-11T12:23:23;-19674.09;;;31.46;30.36
41636;BME280;27623;51.966;4.602;2022-08-11T12:26:07;-19680.84;;;31.70;29.41
41636;BME280;27623;51.966;4.602;2022-08-11T12:28:59;-19683.38;;;31.79;28.07
41636;BME280;27623;51.966;4.602;2022-08-11T12:31:28;-19684.06;;;31.82;28.19
41636;BME280;27623;51.966;4.602;2022-08-11T12:34:05;-19684.22;;;31.82;28.31
41636;BME280;27623;51.966;4.602;2022-08-11T12:36:42;-19689.28;;;32.00;29.10
41636;BME280;27623;51.966;4.602;2022-08-11T12:39:12;-19693.06;;;32.14;28.77
41636;BME280;27623;51.966;4.602;2022-08-11T12:41:38;-19688.84;;;31.99;26.07
41636;BME280;27623;51.966;4.602;2022-08-11T12:44:26;-19692.78;;;32.13;27.36
41636;BME280;27623;51.966;4.602;2022-08-11T12:47:14;-19698.66;;;32.34;28.75
41636;BME280;27623;51.966;4.602;2022-08-11T12:49:43;-19699.94;;;32.39;26.72
41636;BME280;27623;51.966;4.602;2022-08-11T12:52:33;-19703.03;;;32.50;27.20
41636;BME280;27623;51.966;4.602;2022-08-11T12:55:02;-19706.25;;;32.62;27.68
41636;BME280;27623;51.966;4.602;2022-08-11T12:57:35;-19708.91;;;32.71;27.56
41636;BME280;27623;51.966;4.602;2022-08-11T13:00:20;-19711.03;;;32.79;27.20
41636;BME280;27623;51.966;4.602;2022-08-11T13:03:09;-19703.88;;;32.53;25.19
41636;BME280;27623;51.966;4.602;2022-08-11T13:05:58;-19706.66;;;32.63;24.99
41636;BME280;27623;51.966;4.602;2022-08-11T13:08:26;-19708.63;;;32.70;26.17
41636;BME280;27623;51.966;4.602;2022-08-11T13:10:53;-19713.69;;;32.89;25.67
41636;BME280;27623;51.966;4.602;2022-08-11T13:13:39;-19718.59;;;33.06;26.52
41636;BME280;27623;51.966;4.602;2022-08-11T13:16:07;-19722.50;;;33.21;25.07
41636;BME280;27623;51.966;4.602;2022-08-11T13:18:34;-19723.34;;;33.24;25.30
41636;BME280;27623;51.966;4.602;2022-08-11T13:20:59;-19719.28;;;33.09;23.73
41636;BME280;27623;51.966;4.602;2022-08-11T13:23:26;-19720.41;;;33.13;24.59
41636;BME280;27623;51.966;4.602;2022-08-11T13:25:52;-19720.97;;;33.15;24.09
41636;BME280;27623;51.966;4.602;2022-08-11T13:28:21;-19720.56;;;33.13;24.14
41636;BME280;27623;51.966;4.602;2022-08-11T13:30:49;-19722.09;;;33.19;24.79
41636;BME280;27623;51.966;4.602;2022-08-11T13:33:35;-19722.94;;;33.22;24.56
41636;BME280;27623;51.966;4.602;2022-08-11T13:36:05;-19713.69;;;32.89;23.46
41636;BME280;27623;51.966;4.602;2022-08-11T13:38:31;-19717.59;;;33.03;24.42
41636;BME280;27623;51.966;4.602;2022-08-11T13:40:57;-19715.94;;;32.97;24.49
41636;BME280;27623;51.966;4.602;2022-08-11T13:43:23;-19714.66;;;32.92;23.88
41636;BME280;27623;51.966;4.602;2022-08-11T13:45:50;-19716.34;;;32.98;24.82
41636;BME280;27623;51.966;4.602;2022-08-11T13:48:17;-19720.13;;;33.12;25.23
41636;BME280;27623;51.966;4.602;2022-08-11T13:50:45;-19725.47;;;33.31;25.13
41636;BME280;27623;51.966;4.602;2022-08-11T13:53:30;-19730.38;;;33.49;25.12
41636;BME280;27623;51.966;4.602;2022-08-11T13:55:59;-19734.28;;;33.63;25.54
41636;BME280;27623;51.966;4.602;2022-08-11T13:58:26;-19722.50;;;33.21;23.81
41636;BME280;27623;51.966;4.602;2022-08-11T14:00:53;-19726.72;;;33.36;24.67
41636;BME280;27623;51.966;4.602;2022-08-11T14:03:25;-19730.38;;;33.49;25.13
41636;BME280;27623;51.966;4.602;2022-08-11T14:05:53;-19735.28;;;33.67;25.47
41636;BME280;27623;51.966;4.602;2022-08-11T14:08:25;-19739.91;;;33.84;25.48
41636;BME280;27623;51.966;4.602;2022-08-11T14:10:54;-19742.41;;;33.93;25.32
41636;BME280;27623;51.966;4.602;2022-08-11T14:13:44;-19745.06;;;34.02;25.54
41636;BME280;27623;51.966;4.602;2022-08-11T14:16:25;-19742.00;;;33.91;24.42
41636;BME280;27623;51.966;4.602;2022-08-11T14:18:58;-19744.66;;;34.01;25.14
41636;BME280;27623;51.966;4.602;2022-08-11T14:21:24;-19743.25;;;33.96;24.36
41636;BME280;27623;51.966;4.602;2022-08-11T14:24:10;-19734.56;;;33.64;23.68
41636;BME280;27623;51.966;4.602;2022-08-11T14:26:37;-19729.94;;;33.47;23.99
41636;BME280;27623;51.966;4.602;2022-08-11T14:29:07;-19729.94;;;33.47;23.59
41636;BME280;27623;51.966;4.602;2022-08-11T14:31:36;-19728.25;;;33.41;24.42
41636;BME280;27623;51.966;4.602;2022-08-11T14:34:04;-19734.72;;;33.65;25.42
41636;BME280;27623;51.966;4.602;2022-08-11T14:36:35;-19739.91;;;33.84;25.41
41636;BME280;27623;51.966;4.602;2022-08-11T14:39:08;-19743.69;;;33.97;25.23
41636;BME280;27623;51.966;4.602;2022-08-11T14:41:38;-19746.19;;;34.06;25.15
41636;BME280;27623;51.966;4.602;2022-08-11T14:44:23;-19747.72;;;34.12;24.43
41636;BME280;27623;51.966;4.602;2022-08-11T14:47:07;-19747.72;;;34.12;24.60
41636;BME280;27623;51.966;4.602;2022-08-11T14:49:39;-19748.84;;;34.16;24.97
41636;BME280;27623;51.966;4.602;2022-08-11T14:52:15;-19748.72;;;34.16;25.32
41636;BME280;27623;51.966;4.602;2022-08-11T14:54:46;-19748.16;;;34.13;25.39
41636;BME280;27623;51.966;4.602;2022-08-11T14:57:34;-19744.09;;;33.99;25.98
41636;BME280;27623;51.966;4.602;2022-08-11T15:00:02;-19738.50;;;33.78;26.88
41636;BME280;27623;51.966;4.602;2022-08-11T15:02:29;-19742.69;;;33.94;28.15
41636;BME280;27623;51.966;4.602;2022-08-11T15:05:13;-19739.91;;;33.84;27.08
41636;BME280;27623;51.966;4.602;2022-08-11T15:07:39;-19744.09;;;33.99;28.08
41636;BME280;27623;51.966;4.602;2022-08-11T15:10:08;-19746.34;;;34.07;28.06
41636;BME280;27623;51.966;4.602;2022-08-11T15:12:35;-19747.44;;;34.11;27.71
41636;BME280;27623;51.966;4.602;2022-08-11T15:15:03;-19747.16;;;34.10;27.51
41636;BME280;27623;51.966;4.602;2022-08-11T15:17:50;-19747.16;;;34.10;27.64
41636;BME280;27623;51.966;4.602;2022-08-11T15:20:18;-19745.91;;;34.05;27.98
41636;BME280;27623;51.966;4.602;2022-08-11T15:23:04;-19744.22;;;33.99;28.16
41636;BME280;27623;51.966;4.602;2022-08-11T15:25:57;-19744.94;;;34.02;28.41
41636;BME280;27623;51.966;4.602;2022-08-11T15:28:26;-19744.22;;;33.99;28.13
41636;BME280;27623;51.966;4.602;2022-08-11T15:31:13;-19744.09;;;33.99;28.47
41636;BME280;27623;51.966;4.602;2022-08-11T15:33:54;-19743.41;;;33.96;28.21
41636;BME280;27623;51.966;4.602;2022-08-11T15:36:40;-19742.41;;;33.93;28.70
41636;BME280;27623;51.966;4.602;2022-08-11T15:39:33;-19741.28;;;33.89;29.00
41636;BME280;27623;51.966;4.602;2022-08-11T15:44:51;-19738.06;;;33.77;28.70
41636;BME280;27623;51.966;4.602;2022-08-11T15:47:48;-19735.69;;;33.68;28.88
41636;BME280;27623;51.966;4.602;2022-08-11T15:50:26;-19734.72;;;33.65;29.47
41636;BME280;27623;51.966;4.602;2022-08-11T15:53:08;-19732.47;;;33.57;29.19
41636;BME280;27623;51.966;4.602;2022-08-11T15:55:36;-19730.91;;;33.51;29.13
41636;BME280;27623;51.966;4.602;2022-08-11T15:58:03;-19728.97;;;33.44;28.67
41636;BME280;27623;51.966;4.602;2022-08-11T16:00:50;-19727.84;;;33.40;29.51
41636;BME280;27623;51.966;4.602;2022-08-11T16:03:55;-19726.44;;;33.35;29.15
41636;BME280;27623;51.966;4.602;2022-08-11T16:06:41;-19726.31;;;33.34;29.09
41636;BME280;27623;51.966;4.602;2022-08-11T16:09:08;-19725.31;;;33.31;29.24
41636;BME280;27623;51.966;4.602;2022-08-11T16:11:34;-19721.94;;;33.19;28.30
41636;BME280;27623;51.966;4.602;2022-08-11T16:14:04;-19720.00;;;33.11;29.05
41636;BME280;27623;51.966;4.602;2022-08-11T16:16:50;-19715.22;;;32.94;30.16
41636;BME280;27623;51.966;4.602;2022-08-11T16:19:18;-19715.50;;;32.95;29.85
41636;BME280;27623;51.966;4.602;2022-08-11T16:21:44;-19713.69;;;32.89;30.45
41636;BME280;27623;51.966;4.602;2022-08-11T16:24:16;-19712.97;;;32.86;30.21
41636;BME280;27623;51.966;4.602;2022-08-11T16:26:43;-19712.69;;;32.85;29.97
41636;BME280;27623;51.966;4.602;2022-08-11T16:29:10;-19710.03;;;32.75;30.02
41636;BME280;27623;51.966;4.602;2022-08-11T16:31:40;-19707.78;;;32.67;30.22
41636;BME280;27623;51.966;4.602;2022-08-11T16:34:06;-19706.09;;;32.61;30.51
41636;BME280;27623;51.966;4.602;2022-08-11T16:36:55;-19698.94;;;32.35;31.67
41636;BME280;27623;51.966;4.602;2022-08-11T16:39:42;-19695.88;;;32.24;32.10
41636;BME280;27623;51.966;4.602;2022-08-11T16:42:10;-19692.34;;;32.11;32.02
41636;BME280;27623;51.966;4.602;2022-08-11T16:44:55;-19688.00;;;31.96;32.03
41636;BME280;27623;51.966;4.602;2022-08-11T16:47:43;-19683.38;;;31.79;32.42
41636;BME280;27623;51.966;4.602;2022-08-11T16:50:10;-19680.16;;;31.67;32.92
41636;BME280;27623;51.966;4.602;2022-08-11T16:52:36;-19677.47;;;31.58;32.99
41636;BME280;27623;51.966;4.602;2022-08-11T16:55:01;-19674.66;;;31.48;33.43
41636;BME280;27623;51.966;4.602;2022-08-11T16:57:30;-19671.00;;;31.34;33.52
41636;BME280;27623;51.966;4.602;2022-08-11T17:00:16;-19667.78;;;31.23;33.30
41636;BME280;27623;51.966;4.602;2022-08-11T17:02:50;-19667.34;;;31.21;33.00
41636;BME280;27623;51.966;4.602;2022-08-11T17:05:35;-19664.41;;;31.10;33.54
41636;BME280;27623;51.966;4.602;2022-08-11T17:08:27;-19662.44;;;31.03;33.96
41636;BME280;27623;51.966;4.602;2022-08-11T17:11:13;-19658.66;;;30.90;34.46
41636;BME280;27623;51.966;4.602;2022-08-11T17:14:00;-19658.38;;;30.89;34.78
41636;BME280;27623;51.966;4.602;2022-08-11T17:16:35;-19656.41;;;30.82;35.05
41636;BME280;27623;51.966;4.602;2022-08-11T17:19:12;-19655.41;;;30.78;34.58